createdAt,value
2022-09-15T00:00:49.773Z,87.39
2022-09-15T00:03:16.835Z,87.82
2022-09-15T00:05:44.469Z,88.03
2022-09-15T00:08:13.036Z,88.37
2022-09-15T00:10:48.260Z,88.77
2022-09-15T00:13:15.620Z,89.21
2022-09-15T00:15:42.606Z,89.39
2022-09-15T00:18:09.610Z,89.65
2022-09-15T00:20:40.638Z,89.89
2022-09-15T00:23:07.485Z,90.00
2022-09-15T00:25:34.518Z,90.14
2022-09-15T00:28:01.486Z,90.25
2022-09-15T00:30:28.457Z,90.54
2022-09-15T00:32:55.388Z,91.01
2022-09-15T00:35:22.250Z,91.74
2022-09-15T00:37:48.848Z,91.64
2022-09-15T00:40:16.078Z,92.20
2022-09-15T00:42:42.856Z,92.59
2022-09-15T00:45:15.875Z,92.26
2022-09-15T00:47:43.285Z,92.48
2022-09-15T00:50:14.591Z,92.77
2022-09-15T00:52:47.421Z,92.62
2022-09-15T00:55:22.406Z,92.98
2022-09-15T00:57:52.807Z,92.88
2022-09-15T01:00:22.427Z,92.77
2022-09-15T01:02:50.351Z,92.57
2022-09-15T01:05:19.773Z,92.37
2022-09-15T01:07:53.421Z,92.43
2022-09-15T01:10:30.374Z,92.69
2022-09-15T01:12:59.651Z,92.53
2022-09-15T01:15:34.764Z,92.53
2022-09-15T01:18:10.337Z,92.38
2022-09-15T01:20:46.032Z,92.11
2022-09-15T01:23:27.212Z,92.30
2022-09-15T01:26:51.252Z,92.47
2022-09-15T01:29:43.747Z,92.59
2022-09-15T01:32:39.924Z,92.90
2022-09-15T01:35:15.734Z,93.17
2022-09-15T01:37:49.255Z,92.96
2022-09-15T01:40:18.736Z,93.05
2022-09-15T01:42:47.700Z,93.04
2022-09-15T01:45:26.345Z,92.92
2022-09-15T01:47:55.335Z,93.12
2022-09-15T01:50:26.594Z,93.29
2022-09-15T01:52:57.488Z,93.35
2022-09-15T01:55:31.046Z,93.46
2022-09-15T01:57:59.030Z,93.26
2022-09-15T02:00:25.805Z,93.52
2022-09-15T02:03:01.373Z,93.59
2022-09-15T02:05:34.307Z,93.63
2022-09-15T02:08:06.889Z,93.67
2022-09-15T02:10:53.701Z,93.59
2022-09-15T02:13:48.658Z,93.48
2022-09-15T02:16:22.159Z,93.38
2022-09-15T02:18:54.928Z,93.37
2022-09-15T02:21:29.648Z,93.68
2022-09-15T02:24:03.895Z,93.55
2022-09-15T02:26:34.083Z,93.66
2022-09-15T02:29:05.214Z,94.02
2022-09-15T02:31:35.062Z,94.22
2022-09-15T02:34:07.712Z,94.33
2022-09-15T02:36:34.904Z,94.88
2022-09-15T02:39:07.458Z,95.05
2022-09-15T02:41:36.682Z,95.03
2022-09-15T02:44:03.762Z,95.32
2022-09-15T02:46:30.809Z,95.36
2022-09-15T02:48:57.510Z,95.36
2022-09-15T02:51:24.302Z,95.80
2022-09-15T02:53:51.131Z,95.76
2022-09-15T02:56:18.221Z,95.79
2022-09-15T02:58:44.953Z,95.65
2022-09-15T03:01:17.352Z,95.60
2022-09-15T03:03:45.959Z,95.59
2022-09-15T03:06:17.217Z,95.38
2022-09-15T03:08:53.315Z,95.72
2022-09-15T03:11:22.992Z,95.41
2022-09-15T03:13:54.241Z,95.41
2022-09-15T03:16:21.513Z,95.51
2022-09-15T03:18:48.505Z,95.54
2022-09-15T03:21:18.761Z,95.23
2022-09-15T03:23:46.033Z,95.47
2022-09-15T03:26:12.947Z,95.47
2022-09-15T03:28:40.155Z,95.81
2022-09-15T03:31:08.896Z,95.88
2022-09-15T03:33:36.109Z,96.08
2022-09-15T03:36:07.031Z,96.18
2022-09-15T03:38:34.076Z,96.55
2022-09-15T03:41:09.780Z,96.04
2022-09-15T03:43:37.289Z,96.26
2022-09-15T03:46:08.310Z,96.33
2022-09-15T03:48:36.368Z,96.15
2022-09-15T03:51:06.635Z,96.16
2022-09-15T03:53:39.016Z,96.05
2022-09-15T03:56:14.297Z,95.84
2022-09-15T03:58:41.094Z,95.52
2022-09-15T04:01:08.371Z,95.34
2022-09-15T04:03:40.236Z,95.19
2022-09-15T04:06:10.261Z,95.14
2022-09-15T04:08:37.224Z,95.16
2022-09-15T04:11:07.584Z,95.30
2022-09-15T04:13:35.460Z,95.42
2022-09-15T04:16:06.238Z,95.46
2022-09-15T04:18:33.243Z,95.34
2022-09-15T04:21:01.583Z,95.08
2022-09-15T04:23:28.661Z,95.29
2022-09-15T04:26:01.084Z,95.24
2022-09-15T04:28:29.216Z,95.35
2022-09-15T04:31:06.489Z,95.35
2022-09-15T04:33:33.862Z,95.32
2022-09-15T04:36:08.734Z,95.02
2022-09-15T04:38:35.936Z,95.27
2022-09-15T04:41:06.139Z,95.18
2022-09-15T04:43:34.047Z,95.34
2022-09-15T04:46:01.322Z,95.24
2022-09-15T04:48:28.612Z,95.44
2022-09-15T04:51:00.261Z,95.52
2022-09-15T04:53:27.348Z,95.90
2022-09-15T04:56:00.930Z,95.82
2022-09-15T04:58:27.926Z,95.77
2022-09-15T05:00:55.035Z,95.65
2022-09-15T05:03:21.925Z,95.70
2022-09-15T05:05:48.852Z,95.33
2022-09-15T05:08:15.848Z,95.22
2022-09-15T05:10:42.877Z,95.27
2022-09-15T05:13:09.718Z,95.38
2022-09-15T05:15:36.570Z,95.56
2022-09-15T05:18:03.572Z,95.55
2022-09-15T05:20:30.661Z,95.54
2022-09-15T05:22:57.392Z,95.38
2022-09-15T05:25:24.978Z,95.19
2022-09-15T05:27:51.944Z,95.22
2022-09-15T05:30:46.361Z,94.91
2022-09-15T05:33:05.660Z,94.75
2022-09-15T05:35:32.735Z,94.64
2022-09-15T05:37:59.514Z,94.55
2022-09-15T05:40:26.383Z,94.56
2022-09-15T05:42:53.198Z,94.33
2022-09-15T05:45:20.441Z,93.93
2022-09-15T05:47:47.389Z,93.70
2022-09-15T05:50:14.707Z,93.70
2022-09-15T05:52:41.474Z,93.37
2022-09-15T05:55:09.149Z,93.46
2022-09-15T05:57:35.986Z,93.20
2022-09-15T06:00:04.432Z,92.92
2022-09-15T06:02:31.508Z,92.73
2022-09-15T06:04:58.321Z,92.39
2022-09-15T06:07:25.381Z,92.43
2022-09-15T06:09:52.374Z,92.53
2022-09-15T06:12:19.439Z,92.14
2022-09-15T06:14:50.322Z,92.20
2022-09-15T06:17:17.543Z,91.84
2022-09-15T06:19:44.337Z,91.52
2022-09-15T06:22:11.328Z,91.47
2022-09-15T06:24:38.397Z,91.61
2022-09-15T06:27:05.399Z,91.19
2022-09-15T06:29:32.470Z,91.18
2022-09-15T06:32:02.908Z,90.58
2022-09-15T06:34:29.807Z,90.35
2022-09-15T06:36:56.815Z,90.62
2022-09-15T06:39:23.653Z,90.70
2022-09-15T06:42:02.501Z,90.74
2022-09-15T06:44:30.152Z,90.90
2022-09-15T06:46:56.983Z,90.83
2022-09-15T06:49:24.060Z,90.79
2022-09-15T06:51:50.855Z,90.57
2022-09-15T06:54:18.008Z,90.30
2022-09-15T06:56:44.985Z,90.12
2022-09-15T06:59:12.663Z,89.72
2022-09-15T07:01:39.735Z,89.58
2022-09-15T07:04:09.839Z,89.18
2022-09-15T07:06:38.386Z,89.24
2022-09-15T07:09:06.162Z,89.18
2022-09-15T07:11:33.244Z,88.69
2022-09-15T07:14:00.213Z,88.41
2022-09-15T07:16:27.229Z,88.17
2022-09-15T07:19:00.425Z,87.64
2022-09-15T07:21:27.647Z,87.29
2022-09-15T07:23:57.135Z,86.73
2022-09-15T07:26:25.997Z,86.47
2022-09-15T07:28:58.346Z,86.36
2022-09-15T07:31:27.242Z,86.18
2022-09-15T07:33:54.111Z,85.59
2022-09-15T07:36:21.544Z,85.22
2022-09-15T07:38:49.774Z,84.83
2022-09-15T07:41:18.926Z,83.64
2022-09-15T07:43:50.262Z,83.31
2022-09-15T07:46:18.166Z,83.56
2022-09-15T07:48:46.090Z,83.14
2022-09-15T07:51:13.694Z,82.39
2022-09-15T07:53:40.732Z,82.32
2022-09-15T07:56:08.293Z,82.26
2022-09-15T07:58:35.228Z,81.49
2022-09-15T08:01:06.757Z,80.31
2022-09-15T08:03:33.936Z,79.88
2022-09-15T08:06:05.907Z,79.86
2022-09-15T08:08:32.629Z,79.26
2022-09-15T08:10:59.462Z,79.49
2022-09-15T08:13:26.712Z,78.77
2022-09-15T08:15:53.747Z,77.86
2022-09-15T08:18:20.619Z,77.52
2022-09-15T08:20:47.562Z,76.89
2022-09-15T08:23:14.388Z,76.96
2022-09-15T08:25:41.239Z,76.25
2022-09-15T08:28:08.330Z,75.99
2022-09-15T08:30:35.964Z,75.90
2022-09-15T08:33:02.814Z,74.86
2022-09-15T08:35:31.322Z,74.82
2022-09-15T08:37:58.112Z,73.92
2022-09-15T08:40:32.675Z,73.30
2022-09-15T08:43:06.146Z,72.03
2022-09-15T08:45:46.123Z,71.35
2022-09-15T08:48:16.321Z,71.15
2022-09-15T08:50:47.676Z,70.19
2022-09-15T08:53:19.975Z,69.19
2022-09-15T08:55:55.128Z,69.07
2022-09-15T08:58:28.327Z,69.23
2022-09-15T09:01:36.288Z,68.56
2022-09-15T09:04:08.928Z,68.52
2022-09-15T09:06:54.162Z,68.51
2022-09-15T09:09:41.982Z,68.09
2022-09-15T09:12:30.118Z,68.49
2022-09-15T09:15:11.702Z,67.89
2022-09-15T09:17:52.222Z,67.44
2022-09-15T09:20:24.906Z,67.61
2022-09-15T09:22:54.233Z,67.55
2022-09-15T09:25:27.657Z,66.70
2022-09-15T09:27:58.093Z,66.44
2022-09-15T09:30:27.664Z,65.21
2022-09-15T09:33:00.252Z,65.43
2022-09-15T09:35:36.103Z,65.50
2022-09-15T09:38:02.967Z,65.36
2022-09-15T09:40:31.605Z,63.68
2022-09-15T09:42:59.578Z,63.41
2022-09-15T09:45:26.574Z,63.13
2022-09-15T09:47:58.350Z,62.12
2022-09-15T09:50:39.578Z,61.54
2022-09-15T09:53:33.864Z,61.61
2022-09-15T09:56:15.392Z,61.46
2022-09-15T09:58:42.191Z,61.16
2022-09-15T10:01:13.972Z,60.66
2022-09-15T10:03:41.881Z,58.83
2022-09-15T10:06:15.713Z,58.47
2022-09-15T10:09:00.086Z,58.77
2022-09-15T10:11:47.034Z,58.95
2022-09-15T10:14:29.248Z,58.39
2022-09-15T10:17:18.028Z,57.50
2022-09-15T10:19:51.036Z,56.92
2022-09-15T10:22:27.060Z,56.55
2022-09-15T10:24:54.325Z,55.80
2022-09-15T10:27:27.059Z,54.79
2022-09-15T10:29:54.619Z,54.32
2022-09-15T10:32:31.680Z,54.63
2022-09-15T10:35:19.306Z,53.88
2022-09-15T10:37:59.168Z,54.16
2022-09-15T10:40:40.546Z,54.22
2022-09-15T10:43:41.020Z,53.23
2022-09-15T10:46:23.934Z,53.23
2022-09-15T10:48:56.533Z,53.03
2022-09-15T10:51:33.409Z,53.08
2022-09-15T10:54:15.564Z,52.76
2022-09-15T10:56:46.188Z,53.40
2022-09-15T10:59:47.839Z,53.91
2022-09-15T11:02:33.728Z,54.74
2022-09-15T11:05:37.035Z,55.16
2022-09-15T11:08:22.718Z,56.27
2022-09-15T11:10:53.763Z,56.53
2022-09-15T11:13:44.495Z,55.69
2022-09-15T11:16:26.056Z,55.55
2022-09-15T11:18:55.265Z,55.12
2022-09-15T11:21:25.525Z,54.37
2022-09-15T11:24:13.655Z,54.38
2022-09-15T11:26:46.453Z,54.79
2022-09-15T11:29:23.383Z,54.64
2022-09-15T11:31:57.168Z,54.68
2022-09-15T11:34:30.375Z,54.47
2022-09-15T11:37:26.417Z,53.88
2022-09-15T11:40:01.922Z,53.02
2022-09-15T11:43:01.093Z,52.35
2022-09-15T11:45:35.068Z,49.87
2022-09-15T11:48:19.636Z,47.56
2022-09-15T11:50:50.122Z,47.09
2022-09-15T11:53:48.229Z,46.18
2022-09-15T11:56:36.527Z,46.89
2022-09-15T11:59:15.054Z,47.93
2022-09-15T12:01:50.285Z,48.58
2022-09-15T12:04:28.318Z,49.99
2022-09-15T12:07:14.537Z,51.57
2022-09-15T12:09:41.581Z,54.17
2022-09-15T12:12:14.419Z,55.43
2022-09-15T12:14:45.272Z,56.74
2022-09-15T12:17:24.970Z,57.31
2022-09-15T12:20:03.139Z,57.86
2022-09-15T12:22:40.940Z,58.30
2022-09-15T12:25:16.508Z,57.60
2022-09-15T12:27:43.307Z,57.96
2022-09-15T12:30:39.733Z,57.74
2022-09-15T12:33:44.185Z,58.09
2022-09-15T12:36:38.359Z,57.04
2022-09-15T12:39:36.494Z,54.95
2022-09-15T12:42:10.632Z,54.93
2022-09-15T12:44:40.651Z,54.36
2022-09-15T12:47:37.867Z,53.45
2022-09-15T12:50:16.569Z,53.56
2022-09-15T12:52:47.380Z,53.81
2022-09-15T12:55:27.184Z,54.64
2022-09-15T12:58:00.163Z,55.25
2022-09-15T13:00:32.986Z,55.68
2022-09-15T13:03:00.419Z,55.99
2022-09-15T13:05:47.316Z,55.19
2022-09-15T13:08:36.135Z,53.21
2022-09-15T13:11:09.837Z,50.03
2022-09-15T13:13:45.355Z,48.67
2022-09-15T13:16:27.244Z,45.54
2022-09-15T13:19:05.979Z,42.26
2022-09-15T13:21:35.744Z,41.77
2022-09-15T13:24:05.213Z,42.81
2022-09-15T13:26:32.258Z,44.00
2022-09-15T13:29:00.183Z,45.15
2022-09-15T13:31:50.237Z,46.12
2022-09-15T13:40:37.927Z,48.76
2022-09-15T13:43:07.299Z,49.05
2022-09-15T13:45:51.877Z,49.78
2022-09-15T13:48:46.220Z,49.95
2022-09-15T13:51:25.262Z,49.48
2022-09-15T13:54:01.351Z,48.27
2022-09-15T13:56:31.261Z,46.45
2022-09-15T13:59:08.036Z,45.97
2022-09-15T14:01:39.588Z,45.68
2022-09-15T14:04:14.586Z,43.96
2022-09-15T14:06:44.900Z,44.95
2022-09-15T14:09:37.377Z,44.40
2022-09-15T14:12:09.642Z,44.47
2022-09-15T14:14:53.718Z,43.42
2022-09-15T14:17:26.012Z,43.34
2022-09-15T14:19:57.999Z,43.80
2022-09-15T14:22:27.780Z,43.56
2022-09-15T14:24:56.499Z,43.57
2022-09-15T14:27:26.084Z,43.30
2022-09-15T14:29:55.306Z,42.85
2022-09-15T14:32:22.245Z,42.25
2022-09-15T14:34:49.397Z,40.67
2022-09-15T14:37:24.063Z,39.28
2022-09-15T14:39:53.954Z,39.47
2022-09-15T14:42:24.058Z,39.58
2022-09-15T14:47:39.178Z,40.04
2022-09-15T14:50:21.203Z,37.59
2022-09-15T14:52:52.900Z,35.37
2022-09-15T14:55:37.489Z,33.94
2022-09-15T14:58:20.605Z,35.06
2022-09-15T15:01:19.614Z,36.24
2022-09-15T15:03:49.607Z,37.74
2022-09-15T15:06:51.395Z,38.93
2022-09-15T15:09:26.833Z,39.88
2022-09-15T15:11:57.063Z,40.84
2022-09-15T15:14:23.926Z,41.34
2022-09-15T15:17:00.539Z,42.26
2022-09-15T15:19:37.053Z,43.09
2022-09-15T15:22:23.798Z,43.02
2022-09-15T15:24:53.159Z,42.36
2022-09-15T15:27:35.014Z,42.71
2022-09-15T15:30:32.264Z,43.11
2022-09-15T15:33:19.656Z,43.88
2022-09-15T15:35:47.358Z,45.09
2022-09-15T15:38:16.776Z,45.62
2022-09-15T15:40:44.810Z,46.45
2022-09-15T15:43:25.134Z,47.51
2022-09-15T15:46:06.000Z,48.35
2022-09-15T15:48:38.380Z,49.74
2022-09-15T15:51:09.324Z,50.36
2022-09-15T15:53:36.190Z,50.68
2022-09-15T15:56:06.706Z,50.71
2022-09-15T15:58:33.716Z,50.42
2022-09-15T16:01:00.596Z,49.75
2022-09-15T16:03:27.624Z,49.63
2022-09-15T16:06:00.037Z,49.66
2022-09-15T16:08:29.444Z,48.81
2022-09-15T16:10:57.591Z,47.21
2022-09-15T16:13:26.215Z,43.88
2022-09-15T16:15:54.084Z,41.33
2022-09-15T16:18:21.506Z,39.34
2022-09-15T16:20:48.182Z,38.28
2022-09-15T16:23:17.812Z,36.26
2022-09-15T16:26:11.145Z,35.09
2022-09-15T16:28:37.696Z,34.67
2022-09-15T16:31:09.799Z,33.06
2022-09-15T16:33:38.258Z,33.24
2022-09-15T16:36:17.704Z,32.38
2022-09-15T16:38:45.053Z,32.22
2022-09-15T16:41:19.874Z,32.59
2022-09-15T16:43:47.452Z,32.87
2022-09-15T16:46:14.366Z,33.67
2022-09-15T16:48:42.831Z,35.04
2022-09-15T16:51:25.257Z,36.51
2022-09-15T16:53:55.248Z,38.33
2022-09-15T16:56:22.262Z,40.22
2022-09-15T16:58:49.024Z,42.05
2022-09-15T17:01:20.808Z,44.49
2022-09-15T17:03:47.887Z,46.65
2022-09-15T17:06:17.941Z,49.19
2022-09-15T17:08:44.570Z,51.60
2022-09-15T17:11:17.400Z,52.88
2022-09-15T17:13:44.457Z,54.99
2022-09-15T17:16:13.806Z,56.08
2022-09-15T17:18:40.763Z,57.07
2022-09-15T17:21:09.734Z,57.79
2022-09-15T17:23:39.396Z,58.51
2022-09-15T17:26:20.357Z,59.06
2022-09-15T17:28:47.422Z,59.45
2022-09-15T17:31:17.417Z,59.67
2022-09-15T17:33:44.219Z,60.19
2022-09-15T17:36:11.536Z,60.68
2022-09-15T17:38:38.283Z,60.86
2022-09-15T17:41:16.627Z,61.32
2022-09-15T17:43:43.869Z,61.59
2022-09-15T17:46:11.079Z,61.54
2022-09-15T17:48:39.007Z,61.36
2022-09-15T17:51:14.202Z,60.95
2022-09-15T17:53:40.779Z,60.79
2022-09-15T17:56:07.727Z,60.30
2022-09-15T17:58:34.655Z,59.43
2022-09-15T18:01:01.343Z,58.25
2022-09-15T18:03:34.770Z,57.23
2022-09-15T18:06:09.847Z,56.02
2022-09-15T18:08:37.052Z,56.19
2022-09-15T18:11:06.325Z,56.47
2022-09-15T18:13:34.042Z,58.00
2022-09-15T18:16:07.972Z,59.81
2022-09-15T18:18:34.707Z,61.07
2022-09-15T18:21:02.001Z,61.97
2022-09-15T18:23:29.501Z,62.51
2022-09-15T18:25:56.567Z,63.37
2022-09-15T18:28:23.359Z,63.98
2022-09-15T18:30:50.607Z,65.27
2022-09-15T18:33:20.312Z,66.31
2022-09-15T18:35:48.281Z,67.34
2022-09-15T18:38:15.586Z,67.98
2022-09-15T18:40:47.491Z,68.65
2022-09-15T18:43:14.132Z,69.27
2022-09-15T18:45:42.543Z,70.04
2022-09-15T18:48:12.644Z,70.24
2022-09-15T18:50:40.997Z,71.55
2022-09-15T18:53:07.962Z,72.11
2022-09-15T18:55:34.833Z,73.14
2022-09-15T18:58:02.762Z,73.37
2022-09-15T19:00:30.044Z,74.02
2022-09-15T19:03:00.723Z,74.21
2022-09-15T19:05:29.320Z,74.49
2022-09-15T19:07:56.000Z,74.82
2022-09-15T19:10:24.364Z,74.53
2022-09-15T19:12:51.231Z,74.79
2022-09-15T19:15:18.268Z,75.25
2022-09-15T19:17:45.107Z,75.46
2022-09-15T19:20:14.174Z,75.78
2022-09-15T19:22:42.050Z,75.59
2022-09-15T19:25:10.907Z,75.64
2022-09-15T19:27:38.847Z,76.08
2022-09-15T19:30:06.494Z,76.04
2022-09-15T19:32:33.835Z,76.28
2022-09-15T19:35:00.736Z,76.35
2022-09-15T19:37:27.713Z,76.73
2022-09-15T19:39:54.812Z,76.52
2022-09-15T19:42:21.916Z,76.65
2022-09-15T19:44:49.639Z,77.03
2022-09-15T19:47:16.379Z,76.95
2022-09-15T19:49:43.703Z,77.25
2022-09-15T19:52:11.746Z,77.32
2022-09-15T19:54:38.720Z,77.68
2022-09-15T19:57:05.864Z,77.85
2022-09-15T19:59:32.689Z,77.80
2022-09-15T20:02:00.738Z,77.84
2022-09-15T20:04:28.396Z,77.97
2022-09-15T20:06:55.083Z,78.41
2022-09-15T20:09:21.838Z,78.34
2022-09-15T20:11:48.713Z,78.87
2022-09-15T20:14:15.802Z,78.95
2022-09-15T20:16:42.644Z,78.93
2022-09-15T20:19:09.643Z,79.01
2022-09-15T20:21:53.013Z,79.20
2022-09-15T20:24:21.234Z,79.57
2022-09-15T20:26:48.638Z,79.80
2022-09-15T20:29:15.843Z,79.74
2022-09-15T20:31:42.804Z,80.16
2022-09-15T20:34:09.517Z,80.67
2022-09-15T20:36:38.748Z,81.05
2022-09-15T20:39:13.105Z,81.11
2022-09-15T20:41:41.130Z,81.68
2022-09-15T20:44:11.333Z,82.05
2022-09-15T20:46:38.296Z,82.02
2022-09-15T20:49:05.711Z,82.83
2022-09-15T20:51:33.756Z,82.56
2022-09-15T20:54:03.846Z,83.10
2022-09-15T20:56:32.470Z,83.48
2022-09-15T20:59:00.478Z,83.50
2022-09-15T21:01:38.093Z,83.40
2022-09-15T21:04:06.979Z,83.58
2022-09-15T21:06:34.764Z,83.70
2022-09-15T21:09:01.616Z,83.38
2022-09-15T21:11:29.064Z,83.47
2022-09-15T21:13:56.505Z,83.45
2022-09-15T21:16:26.285Z,83.37
2022-09-15T21:18:53.628Z,83.68
2022-09-15T21:21:25.822Z,83.52
2022-09-15T21:23:58.761Z,83.98
2022-09-15T21:26:28.030Z,84.05
2022-09-15T21:28:56.270Z,84.51
2022-09-15T21:31:28.317Z,85.51
2022-09-15T21:33:55.677Z,86.10
2022-09-15T21:36:30.646Z,86.91
2022-09-15T21:38:58.858Z,87.66
2022-09-15T21:41:28.998Z,88.10
2022-09-15T21:43:58.050Z,87.88
2022-09-15T21:46:26.966Z,88.09
2022-09-15T21:48:55.501Z,88.12
2022-09-15T21:51:24.895Z,87.54
2022-09-15T21:53:53.572Z,87.38
2022-09-15T21:56:21.243Z,87.07
2022-09-15T21:58:48.680Z,86.88
2022-09-15T22:01:32.252Z,86.60
2022-09-15T22:04:01.167Z,86.32
2022-09-15T22:06:33.556Z,85.94
2022-09-15T22:09:02.079Z,86.06
2022-09-15T22:11:29.251Z,85.90
2022-09-15T22:13:56.305Z,85.71
2022-09-15T22:16:25.002Z,85.78
2022-09-15T22:18:52.077Z,85.63
2022-09-15T22:21:23.705Z,85.51
2022-09-15T22:23:51.830Z,85.80
2022-09-15T22:26:21.489Z,85.63
2022-09-15T22:28:48.425Z,85.66
2022-09-15T22:31:16.618Z,85.78
2022-09-15T22:33:43.444Z,86.11
2022-09-15T22:36:11.292Z,86.16
2022-09-15T22:38:38.676Z,86.45
2022-09-15T22:41:15.556Z,86.38
2022-09-15T22:43:43.947Z,86.36
2022-09-15T22:46:11.498Z,86.47
2022-09-15T22:48:43.339Z,86.29
2022-09-15T22:51:11.065Z,86.49
2022-09-15T22:53:38.201Z,86.43
2022-09-15T22:56:09.902Z,86.48
2022-09-15T22:58:37.276Z,86.44
2022-09-15T23:01:09.986Z,86.15
2022-09-15T23:03:37.311Z,86.27
2022-09-15T23:06:07.845Z,86.15
2022-09-15T23:08:35.404Z,85.85
2022-09-15T23:11:22.163Z,85.89
2022-09-15T23:13:49.442Z,85.71
2022-09-15T23:16:17.170Z,85.73
2022-09-15T23:18:44.896Z,85.70
2022-09-15T23:21:13.002Z,85.62
2022-09-15T23:23:41.164Z,85.91
2022-09-15T23:26:10.180Z,86.16
2022-09-15T23:28:38.933Z,86.38
2022-09-15T23:31:11.828Z,86.35
2022-09-15T23:33:38.930Z,86.50
2022-09-15T23:36:11.484Z,86.70
2022-09-15T23:38:40.150Z,86.59
2022-09-15T23:41:07.862Z,86.78
2022-09-15T23:43:35.360Z,87.14
2022-09-15T23:46:05.682Z,87.36
2022-09-15T23:48:32.768Z,87.43
2022-09-15T23:50:59.962Z,87.81
2022-09-15T23:53:27.100Z,88.25
2022-09-15T23:55:54.103Z,88.17
2022-09-15T23:58:21.128Z,88.30
